Time;durP1;ratioP1;P1;durP2;ratioP2;P2;SDS_P1;SDS_P2;PMS_P1;PMS_P2;Temp;Humidity;BMP_temperature;BMP_pressure;BME280_temperature;BME280_humidity;BME280_pressure;Samples;Min_cycle;Max_cycle;Signal;HPM_P1;HPM_P2
2023/10/29 00:00:28;;;;;;;3.90;1.20;;;;;;;12.19;100.00;99039.41;5033216;28;20516;-78
2023/10/29 00:02:54;;;;;;;1.70;1.00;;;;;;;12.23;100.00;99042.53;5051501;28;20060;-78
2023/10/29 00:05:20;;;;;;;3.20;1.10;;;;;;;12.24;100.00;99028.34;5051719;28;20387;-78
2023/10/29 00:07:45;;;;;;;4.72;1.10;;;;;;;12.26;100.00;99033.44;5050666;28;20470;-78
2023/10/29 00:10:11;;;;;;;3.92;1.00;;;;;;;12.27;100.00;99033.28;5057452;28;20032;-78
2023/10/29 00:12:36;;;;;;;2.28;1.10;;;;;;;12.29;100.00;99023.38;5049198;28;20021;-78
2023/10/29 00:15:03;;;;;;;3.15;1.33;;;;;;;12.32;100.00;99016.94;5048155;28;20098;-78
2023/10/29 00:17:28;;;;;;;3.22;1.45;;;;;;;12.33;100.00;98998.31;5033664;28;20476;-78
2023/10/29 00:19:54;;;;;;;2.70;1.20;;;;;;;12.34;100.00;98999.97;5051646;28;20032;-78
2023/10/29 00:22:19;;;;;;;3.15;1.10;;;;;;;12.35;100.00;98966.50;5050395;28;20056;-78
2023/10/29 00:24:45;;;;;;;2.55;1.10;;;;;;;12.34;100.00;98960.41;5050842;28;20032;-78
2023/10/29 00:27:10;;;;;;;2.50;1.20;;;;;;;12.33;100.00;98950.03;5049509;28;20017;-77
2023/10/29 00:29:36;;;;;;;3.83;1.40;;;;;;;12.31;100.00;98952.84;5035088;28;20021;-77
2023/10/29 00:32:02;;;;;;;5.28;1.30;;;;;;;12.30;100.00;98948.56;5032369;28;20029;-77
2023/10/29 00:34:27;;;;;;;3.85;1.23;;;;;;;12.29;100.00;98954.81;5048566;28;20490;-78
2023/10/29 00:36:53;;;;;;;4.47;1.15;;;;;;;12.29;100.00;98941.63;5049697;28;20108;-78
2023/10/29 00:39:18;;;;;;;6.57;1.42;;;;;;;12.31;100.00;98965.19;5032640;28;20434;-78
2023/10/29 00:41:44;;;;;;;2.97;1.17;;;;;;;12.30;100.00;98998.66;5048891;28;20029;-78
2023/10/29 00:44:09;;;;;;;2.67;1.20;;;;;;;12.32;100.00;98977.38;5050302;28;20021;-78
2023/10/29 00:46:35;;;;;;;3.65;1.20;;;;;;;12.35;100.00;98969.97;5051710;28;20390;-78
2023/10/29 00:49:02;;;;;;;3.30;1.10;;;;;;;12.40;100.00;98967.63;5050514;28;20475;-80
2023/10/29 00:51:27;;;;;;;4.00;1.13;;;;;;;12.45;100.00;98969.78;5050958;28;20036;-77
2023/10/29 00:53:53;;;;;;;3.67;1.30;;;;;;;12.49;100.00;98974.53;5033535;28;20410;-77
2023/10/29 00:56:18;;;;;;;4.90;1.50;;;;;;;12.53;100.00;98954.72;5050530;28;20021;-77
2023/10/29 00:58:45;;;;;;;2.53;1.02;;;;;;;12.55;100.00;98950.09;5048984;28;20037;-77
2023/10/29 01:01:11;;;;;;;3.60;1.10;;;;;;;12.58;100.00;98953.38;5051007;28;20044;-76
2023/10/29 01:03:36;;;;;;;2.92;1.10;;;;;;;12.62;100.00;98949.41;5032006;28;20491;-77
2023/10/29 01:06:02;;;;;;;4.65;1.15;;;;;;;12.67;100.00;98952.34;5048072;28;20028;-77
2023/10/29 01:08:28;;;;;;;3.30;1.15;;;;;;;12.68;100.00;98948.72;5048969;28;20481;-77
2023/10/29 01:10:55;;;;;;;4.15;1.10;;;;;;;12.73;100.00;98946.38;5039206;28;20040;-77
2023/10/29 01:13:20;;;;;;;4.28;1.10;;;;;;;12.78;100.00;98930.84;5050137;28;20129;-78
2023/10/29 01:15:46;;;;;;;3.42;1.00;;;;;;;12.78;100.00;98928.19;5032589;28;20129;-77
2023/10/29 01:18:11;;;;;;;4.60;1.20;;;;;;;12.82;100.00;98913.69;5050093;28;20044;-77
2023/10/29 01:20:38;;;;;;;3.35;1.10;;;;;;;12.83;100.00;98904.75;5052048;28;20036;-77
2023/10/29 01:23:03;;;;;;;3.10;1.00;;;;;;;12.80;100.00;98910.38;5048237;28;20096;-77
2023/10/29 01:25:29;;;;;;;2.72;1.00;;;;;;;12.77;100.00;98922.09;5049666;28;20043;-77
2023/10/29 01:27:54;;;;;;;3.58;1.10;;;;;;;12.77;100.00;98931.81;5050006;28;20021;-77
2023/10/29 01:30:20;;;;;;;2.35;0.88;;;;;;;12.78;100.00;98929.00;5048650;28;20031;-78
2023/10/29 01:32:45;;;;;;;3.72;1.20;;;;;;;12.76;100.00;98923.09;5048942;28;21167;-77
2023/10/29 01:35:11;;;;;;;4.20;1.17;;;;;;;12.75;100.00;98918.00;5048504;28;20039;-77
2023/10/29 01:37:37;;;;;;;2.60;0.98;;;;;;;12.76;100.00;98903.78;5048194;28;20428;-77
2023/10/29 01:40:03;;;;;;;4.50;0.90;;;;;;;12.75;100.00;98904.78;5048436;28;20028;-77
2023/10/29 01:42:29;;;;;;;1.90;0.98;;;;;;;12.73;100.00;98902.31;5048029;28;20047;-77
2023/10/29 01:44:54;;;;;;;2.83;0.90;;;;;;;12.71;100.00;98885.84;5047837;28;20060;-78
2023/10/29 01:47:20;;;;;;;3.97;1.02;;;;;;;12.67;100.00;98889.00;5047579;28;20445;-79
2023/10/29 01:49:45;;;;;;;2.53;1.00;;;;;;;12.68;100.00;98893.28;5048365;28;20071;-79
2023/10/29 01:52:11;;;;;;;2.88;1.15;;;;;;;12.69;100.00;98897.56;5047685;28;20077;-78
2023/10/29 01:54:36;;;;;;;2.35;1.08;;;;;;;12.70;100.00;98899.22;5029951;28;20021;-78
2023/10/29 01:57:01;;;;;;;3.28;0.80;;;;;;;12.68;100.00;98902.03;5028543;28;20083;-78
2023/10/29 01:59:28;;;;;;;4.18;0.93;;;;;;;12.62;100.00;98902.72;5028252;28;20067;-78
2023/10/29 02:01:53;;;;;;;2.60;1.10;;;;;;;12.62;100.00;98907.19;5032873;28;20751;-78
2023/10/29 02:04:20;;;;;;;2.70;0.98;;;;;;;12.62;100.00;98910.66;5029309;28;20091;-78
2023/10/29 02:06:46;;;;;;;2.70;1.02;;;;;;;12.63;100.00;98909.66;5047430;28;20090;-78
2023/10/29 02:09:12;;;;;;;2.10;1.05;;;;;;;12.62;100.00;98912.47;5050668;28;20021;-78
2023/10/29 02:11:38;;;;;;;3.60;1.20;;;;;;;12.59;100.00;98913.63;5031788;28;20029;-79
2023/10/29 02:14:07;;;;;;;2.30;1.00;;;;;;;12.60;100.00;98909.19;5042532;28;20048;-77
2023/10/29 02:16:32;;;;;;;2.42;0.93;;;;;;;12.58;100.00;98912.00;5046970;28;20025;-77
2023/10/29 02:18:57;;;;;;;2.78;1.00;;;;;;;12.59;100.00;98902.25;5049197;28;20478;-78
2023/10/29 02:21:24;;;;;;;2.88;1.13;;;;;;;12.58;100.00;98903.25;5047903;28;20063;-77
2023/10/29 02:23:50;;;;;;;1.98;1.00;;;;;;;12.57;100.00;98904.25;5049081;28;20028;-78
2023/10/29 02:26:15;;;;;;;3.53;1.20;;;;;;;12.58;100.00;98895.34;5047304;28;20016;-77
2023/10/29 02:28:41;;;;;;;3.83;1.13;;;;;;;12.58;100.00;98905.91;5048933;28;20486;-77
2023/10/29 02:31:06;;;;;;;1.73;1.02;;;;;;;12.54;100.00;98906.25;5049702;28;20386;-77
2023/10/29 02:33:31;;;;;;;3.47;1.00;;;;;;;12.53;100.00;98909.88;5038174;28;20159;-77
2023/10/29 02:35:57;;;;;;;3.95;1.10;;;;;;;12.54;100.00;98906.25;5059463;28;20025;-78
2023/10/29 02:38:23;;;;;;;2.90;0.93;;;;;;;12.60;100.00;98911.81;5048221;28;20493;-78
2023/10/29 02:40:49;;;;;;;5.78;1.00;;;;;;;12.62;100.00;98909.84;5048602;28;20024;-78
2023/10/29 02:43:15;;;;;;;2.95;1.00;;;;;;;12.62;100.00;98897.47;5047993;28;20395;-78
2023/10/29 02:45:41;;;;;;;2.45;0.90;;;;;;;12.66;100.00;98882.09;5031522;28;20024;-78
2023/10/29 02:48:06;;;;;;;3.55;1.00;;;;;;;12.69;100.00;98897.56;5030600;28;20021;-78
2023/10/29 02:50:32;;;;;;;3.50;1.00;;;;;;;12.72;100.00;98897.22;5031376;28;20024;-79
2023/10/29 02:52:57;;;;;;;1.45;0.82;;;;;;;12.73;100.00;98904.16;5046628;28;20051;-78
2023/10/29 02:55:23;;;;;;;3.97;1.13;;;;;;;12.76;100.00;98906.44;5030614;28;20020;-79
2023/10/29 02:57:48;;;;;;;2.60;1.10;;;;;;;12.77;100.00;98900.97;5050376;28;20032;-79
2023/10/29 03:00:14;;;;;;;2.58;0.90;;;;;;;12.81;100.00;98894.38;5054189;28;20176;-79
2023/10/29 03:02:39;;;;;;;3.00;0.88;;;;;;;12.83;100.00;98895.03;5054141;28;20565;-79
2023/10/29 03:05:06;;;;;;;2.60;0.90;;;;;;;12.85;100.00;98894.84;5055760;28;20024;-79
2023/10/29 03:07:31;;;;;;;3.53;0.80;;;;;;;12.88;100.00;98897.13;5022967;28;20028;-79
2023/10/29 03:09:57;;;;;;;3.63;0.90;;;;;;;12.91;100.00;98896.78;5044055;28;20497;-79
2023/10/29 03:12:22;;;;;;;3.22;0.90;;;;;;;12.94;100.00;98895.59;5055200;28;20029;-80
2023/10/29 03:14:47;;;;;;;1.65;0.70;;;;;;;12.95;100.00;98890.16;5053652;28;20127;-79
2023/10/29 03:17:13;;;;;;;2.25;1.00;;;;;;;13.00;100.00;98903.63;5040677;28;20110;-79
2023/10/29 03:19:38;;;;;;;2.08;0.85;;;;;;;13.03;100.00;98887.44;5037816;28;20040;-78
2023/10/29 03:22:04;;;;;;;4.70;0.77;;;;;;;13.05;100.00;98897.81;5055790;28;20037;-78
2023/10/29 03:24:30;;;;;;;2.03;0.70;;;;;;;13.08;100.00;98900.94;5036744;28;20047;-78
2023/10/29 03:26:56;;;;;;;1.60;0.82;;;;;;;13.13;100.00;98901.22;5053829;28;20029;-79
2023/10/29 03:29:21;;;;;;;3.30;0.80;;;;;;;13.12;100.00;98906.66;5057292;28;20043;-78
2023/10/29 03:31:47;;;;;;;0.90;0.77;;;;;;;13.13;100.00;98903.84;5049813;28;20028;-78
2023/10/29 03:34:14;;;;;;;2.83;0.93;;;;;;;13.11;100.00;98916.41;5054284;28;20076;-79
2023/10/29 03:36:39;;;;;;;1.70;0.90;;;;;;;13.10;100.00;98909.50;5036669;28;20082;-78
2023/10/29 03:39:05;;;;;;;2.75;0.80;;;;;;;13.11;100.00;98905.03;5054335;28;20074;-79
2023/10/29 03:41:30;;;;;;;1.77;0.77;;;;;;;13.08;100.00;98914.13;5054073;28;20096;-78
2023/10/29 03:43:57;;;;;;;1.92;0.80;;;;;;;13.07;100.00;98896.66;5053490;28;20083;-78
2023/10/29 03:46:22;;;;;;;2.55;0.80;;;;;;;13.03;100.00;98900.63;5030150;28;20029;-78
2023/10/29 03:48:48;;;;;;;2.65;0.90;;;;;;;12.98;100.00;98908.28;5035011;28;20037;-78
2023/10/29 03:51:14;;;;;;;3.03;1.00;;;;;;;12.95;100.00;98903.34;5041463;28;20103;-79
2023/10/29 03:53:39;;;;;;;4.30;0.80;;;;;;;12.93;100.00;98900.06;5055181;28;20032;-79
2023/10/29 03:56:05;;;;;;;1.30;0.68;;;;;;;12.92;100.00;98900.25;5054890;28;20031;-78
2023/10/29 03:58:33;;;;;;;1.90;0.68;;;;;;;12.88;100.00;98902.41;5037136;28;20017;-78
2023/10/29 04:01:02;;;;;;;1.08;0.73;;;;;;;12.87;100.00;98900.78;5055507;28;20104;-78
2023/10/29 04:03:28;;;;;;;3.05;0.82;;;;;;;12.86;100.00;98907.03;5055225;28;20049;-78
2023/10/29 04:05:55;;;;;;;3.58;0.80;;;;;;;12.92;100.00;98908.97;5053551;28;20124;-79
2023/10/29 04:08:20;;;;;;;2.15;0.80;;;;;;;12.93;100.00;98907.16;5054087;28;20390;-79
2023/10/29 04:10:45;;;;;;;3.50;0.80;;;;;;;12.95;100.00;98892.78;5047857;28;20017;-79
2023/10/29 04:13:11;;;;;;;2.22;0.75;;;;;;;12.95;100.00;98903.34;5051163;28;20107;-79
2023/10/29 04:15:36;;;;;;;2.15;0.90;;;;;;;12.95;100.00;98913.91;5051955;28;20445;-77
2023/10/29 04:18:01;;;;;;;2.95;0.90;;;;;;;12.93;100.00;98918.53;5052045;28;20514;-78
2023/10/29 04:20:27;;;;;;;4.03;1.00;;;;;;;12.94;100.00;98922.81;5051680;28;20029;-79
2023/10/29 04:22:53;;;;;;;2.85;0.75;;;;;;;12.93;100.00;98926.47;5054173;28;20064;-77
2023/10/29 04:25:18;;;;;;;3.72;1.00;;;;;;;12.95;100.00;98929.75;5051144;28;20082;-78
2023/10/29 04:27:43;;;;;;;5.65;1.17;;;;;;;12.96;100.00;98925.28;5048844;28;20041;-79
2023/10/29 04:30:09;;;;;;;6.07;0.98;;;;;;;12.97;100.00;98927.75;5040780;28;20033;-79
2023/10/29 04:32:34;;;;;;;3.80;1.05;;;;;;;12.98;100.00;98924.09;5032527;28;20028;-79
2023/10/29 04:35:00;;;;;;;2.75;0.90;;;;;;;12.97;100.00;98911.91;5032828;28;20025;-79
2023/10/29 04:37:25;;;;;;;2.95;0.75;;;;;;;12.96;100.00;98910.28;5057696;28;20107;-78
2023/10/29 04:39:50;;;;;;;3.92;0.93;;;;;;;12.96;100.00;98931.38;5053239;28;20381;-79
2023/10/29 04:42:16;;;;;;;3.75;1.05;;;;;;;12.96;100.00;98928.75;5070452;28;20055;-78
2023/10/29 04:44:42;;;;;;;2.17;1.00;;;;;;;12.95;100.00;98929.75;5050364;28;20017;-79
2023/10/29 04:47:08;;;;;;;2.55;1.10;;;;;;;12.97;100.00;98926.94;5050462;28;20067;-79
2023/10/29 04:49:33;;;;;;;2.17;0.90;;;;;;;12.96;100.00;98923.47;5032347;28;20021;-78
2023/10/29 04:51:58;;;;;;;4.00;1.45;;;;;;;12.94;100.00;98922.81;5046826;28;20022;-78
2023/10/29 04:54:24;;;;;;;5.55;1.52;;;;;;;12.95;100.00;98924.47;5030325;28;20021;-78
2023/10/29 04:56:49;;;;;;;4.18;1.25;;;;;;;12.97;100.00;98933.03;5046838;28;20048;-79
2023/10/29 04:59:14;;;;;;;5.32;1.33;;;;;;;12.99;100.00;98919.66;5049133;28;20501;-78
2023/10/29 05:01:40;;;;;;;4.03;1.10;;;;;;;13.00;100.00;98927.41;5050136;28;20452;-79
2023/10/29 05:04:05;;;;;;;3.65;1.02;;;;;;;13.01;100.00;98938.78;5050818;28;20554;-78
2023/10/29 05:06:30;;;;;;;4.20;1.40;;;;;;;12.99;100.00;98935.50;5031593;28;20031;-78
2023/10/29 05:08:56;;;;;;;7.97;1.40;;;;;;;12.95;100.00;98929.75;5050203;28;20053;-78
2023/10/29 05:11:22;;;;;;;4.05;1.15;;;;;;;12.93;100.00;98955.50;5042777;28;20098;-78
2023/10/29 05:13:47;;;;;;;6.20;1.20;;;;;;;12.90;100.00;98963.78;5049228;28;20131;-78
2023/10/29 05:16:14;;;;;;;4.18;1.13;;;;;;;12.87;100.00;98979.97;5048345;28;20094;-78
2023/10/29 05:18:39;;;;;;;5.18;1.70;;;;;;;12.82;100.00;98983.13;5050175;28;20052;-78
2023/10/29 05:21:04;;;;;;;4.05;1.25;;;;;;;12.78;100.00;98965.13;5050393;28;20056;-78
2023/10/29 05:23:30;;;;;;;4.90;1.40;;;;;;;12.71;100.00;98974.75;5032378;28;20509;-79
2023/10/29 05:25:55;;;;;;;5.00;1.30;;;;;;;12.62;100.00;98983.72;5049191;28;20104;-78
2023/10/29 05:28:22;;;;;;;5.28;1.30;;;;;;;12.49;100.00;98986.91;5050245;28;20057;-79
2023/10/29 05:30:47;;;;;;;3.83;0.88;;;;;;;12.39;100.00;98976.53;5047026;28;20045;-82
2023/10/29 05:33:12;;;;;;;4.85;0.90;;;;;;;12.27;100.00;98983.19;5049470;28;20033;-81
2023/10/29 05:35:38;;;;;;;2.00;0.80;;;;;;;12.16;100.00;98968.56;5047788;28;20482;-80
2023/10/29 05:38:04;;;;;;;3.95;0.90;;;;;;;12.08;100.00;98983.56;5047835;28;20024;-80
2023/10/29 05:40:42;;;;;;;2.95;0.90;;;;;;;11.99;100.00;98995.09;5051474;28;20025;-78
2023/10/29 05:43:07;;;;;;;3.00;0.90;;;;;;;11.92;100.00;99006.31;5034233;28;20061;-77
2023/10/29 05:45:32;;;;;;;2.97;0.80;;;;;;;11.85;100.00;99007.97;5048614;28;20081;-77
2023/10/29 05:47:58;;;;;;;2.78;0.98;;;;;;;11.80;100.00;99015.56;5049624;28;20499;-77
2023/10/29 05:50:24;;;;;;;3.45;1.13;;;;;;;11.74;100.00;99010.13;5049435;28;20020;-77
2023/10/29 05:52:49;;;;;;;3.63;1.00;;;;;;;11.68;100.00;99014.25;5044837;28;20032;-77
2023/10/29 05:55:15;;;;;;;3.97;1.00;;;;;;;11.65;100.00;99035.66;5046812;28;20108;-77
2023/10/29 05:57:40;;;;;;;6.70;1.60;;;;;;;11.62;100.00;99030.72;5046835;28;20028;-77
2023/10/29 06:00:07;;;;;;;4.15;0.93;;;;;;;11.64;100.00;99056.88;5048288;28;20478;-77
2023/10/29 06:02:33;;;;;;;4.95;1.17;;;;;;;11.59;100.00;99045.00;5048244;28;20048;-77
2023/10/29 06:04:58;;;;;;;6.40;1.20;;;;;;;11.58;100.00;99058.34;5048359;28;20115;-77
2023/10/29 06:07:24;;;;;;;3.45;1.13;;;;;;;11.55;100.00;99056.03;5049153;28;20066;-78
2023/10/29 06:09:49;;;;;;;5.28;1.20;;;;;;;11.55;100.00;99051.59;5047178;28;20024;-77
2023/10/29 06:12:14;;;;;;;4.85;1.30;;;;;;;11.55;100.00;99061.31;5057644;28;20028;-77
2023/10/29 06:14:40;;;;;;;4.90;1.42;;;;;;;11.54;100.00;99075.47;5049092;28;20036;-77
2023/10/29 06:17:06;;;;;;;5.47;1.50;;;;;;;11.49;100.00;99070.69;5048851;28;20025;-77
2023/10/29 06:19:34;;;;;;;7.53;2.10;;;;;;;11.46;100.00;99078.09;5049392;28;20032;-77
2023/10/29 06:22:00;;;;;;;4.85;1.63;;;;;;;11.46;100.00;99089.44;5031162;28;20024;-77
2023/10/29 06:24:25;;;;;;;8.23;1.73;;;;;;;11.44;100.00;99082.69;5050089;28;20086;-77
2023/10/29 06:26:50;;;;;;;7.75;1.70;;;;;;;11.45;100.00;99079.91;5046417;28;20987;-77
2023/10/29 06:29:16;;;;;;;8.63;1.67;;;;;;;11.44;100.00;99083.53;5030414;28;20040;-77
2023/10/29 06:31:41;;;;;;;8.57;1.63;;;;;;;11.46;100.00;99099.16;5031336;28;20052;-76
2023/10/29 06:34:06;;;;;;;5.88;1.33;;;;;;;11.44;100.00;99098.50;5037506;28;20029;-77
2023/10/29 06:36:32;;;;;;;10.18;1.90;;;;;;;11.41;100.00;99090.91;5049371;28;20032;-77
2023/10/29 06:38:58;;;;;;;9.23;2.10;;;;;;;11.39;100.00;99092.91;5047545;28;20028;-77
2023/10/29 06:41:23;;;;;;;8.90;1.92;;;;;;;11.37;100.00;99105.41;5047194;28;20028;-77
2023/10/29 06:43:48;;;;;;;8.50;1.60;;;;;;;11.35;100.00;99107.38;5029907;28;20032;-77
2023/10/29 06:46:17;;;;;;;5.95;1.60;;;;;;;11.35;100.00;99112.63;5046981;28;20031;-77
2023/10/29 06:48:43;;;;;;;9.77;2.10;;;;;;;11.33;100.00;99109.34;5047124;28;20032;-77
2023/10/29 06:51:11;;;;;;;10.65;1.70;;;;;;;11.30;100.00;99127.09;5048018;28;20480;-77
2023/10/29 06:53:37;;;;;;;8.73;1.83;;;;;;;11.29;100.00;99133.38;5046761;28;20039;-76
2023/10/29 06:56:04;;;;;;;7.57;1.73;;;;;;;11.29;100.00;99129.91;5046830;28;20040;-78
2023/10/29 06:58:30;;;;;;;11.18;1.85;;;;;;;11.30;100.00;99132.38;5046170;28;20070;-77
2023/10/29 07:01:02;;;;;;;8.85;2.10;;;;;;;11.28;100.00;99144.88;5046491;28;20044;-77
2023/10/29 07:03:27;;;;;;;10.73;2.05;;;;;;;11.23;100.00;99147.16;5047693;28;20044;-77
2023/10/29 07:05:53;;;;;;;8.55;1.77;;;;;;;11.22;100.00;99148.16;5046524;28;20032;-77
2023/10/29 07:08:19;;;;;;;10.75;1.95;;;;;;;11.22;100.00;99145.53;5026611;28;20292;-77
2023/10/29 07:10:46;;;;;;;8.23;2.10;;;;;;;11.20;100.00;99160.63;5046840;28;20060;-77
2023/10/29 07:13:11;;;;;;;9.20;2.13;;;;;;;11.19;100.00;99164.22;5047263;28;20552;-77
2023/10/29 07:15:40;;;;;;;10.65;2.22;;;;;;;11.18;100.00;99159.94;5029057;28;20109;-77
2023/10/29 07:18:05;;;;;;;9.05;2.22;;;;;;;11.21;100.00;99175.47;5047749;28;20040;-77
2023/10/29 07:20:33;;;;;;;7.97;1.92;;;;;;;11.27;100.00;99169.56;5049214;28;20025;-78
2023/10/29 07:22:59;;;;;;;11.07;2.35;;;;;;;11.29;100.00;99162.31;5048306;28;20017;-77
2023/10/29 07:25:25;;;;;;;10.95;2.13;;;;;;;11.32;100.00;99170.88;5031229;28;20542;-77
2023/10/29 07:27:50;;;;;;;7.95;1.83;;;;;;;11.36;100.00;99183.56;5047968;28;20441;-78
2023/10/29 07:30:15;;;;;;;9.45;2.05;;;;;;;11.40;100.00;99192.78;5046693;28;20024;-77
2023/10/29 07:32:41;;;;;;;8.80;2.22;;;;;;;11.44;100.00;99195.94;5044363;28;20032;-77
2023/10/29 07:35:06;;;;;;;7.20;2.30;;;;;;;11.50;100.00;99211.09;5029274;28;20422;-78
2023/10/29 07:37:32;;;;;;;10.80;2.53;;;;;;;11.54;100.00;99201.88;5028528;28;20029;-79
2023/10/29 07:39:57;;;;;;;12.13;2.42;;;;;;;11.58;100.00;99197.94;5029675;28;20112;-79
2023/10/29 07:42:24;;;;;;;7.30;2.00;;;;;;;11.58;100.00;99203.22;5040774;28;20104;-79
2023/10/29 07:44:50;;;;;;;8.85;2.03;;;;;;;11.60;100.00;99211.78;5050806;28;20398;-79
2023/10/29 07:47:15;;;;;;;11.15;2.50;;;;;;;11.65;100.00;99214.78;5052458;28;20025;-78
2023/10/29 07:49:42;;;;;;;10.30;2.17;;;;;;;11.72;100.00;99222.88;5052822;28;20108;-79
2023/10/29 07:52:07;;;;;;;7.80;2.28;;;;;;;11.73;100.00;99216.59;5033985;28;20021;-79
2023/10/29 07:54:33;;;;;;;11.38;2.20;;;;;;;11.74;100.00;99213.81;5052673;28;20502;-79
2023/10/29 07:56:58;;;;;;;10.25;2.25;;;;;;;11.82;100.00;99221.75;5050262;28;20028;-79
2023/10/29 07:59:24;;;;;;;9.98;2.10;;;;;;;11.83;100.00;99233.94;5049418;28;20033;-79
2023/10/29 08:01:49;;;;;;;9.93;2.50;;;;;;;11.89;100.00;99216.66;5033349;28;20394;-79
2023/10/29 08:04:15;;;;;;;10.18;2.35;;;;;;;11.96;100.00;99220.31;5051401;28;20059;-79
2023/10/29 08:06:40;;;;;;;15.05;2.55;;;;;;;12.01;100.00;99211.91;5030962;28;20498;-79
2023/10/29 08:09:05;;;;;;;9.32;2.28;;;;;;;12.07;100.00;99220.00;5051365;28;20033;-79
2023/10/29 08:11:35;;;;;;;13.20;2.25;;;;;;;12.09;100.00;99231.22;5053751;28;20032;-79
2023/10/29 08:14:01;;;;;;;8.93;2.22;;;;;;;12.16;100.00;99236.66;5054739;28;20398;-79
2023/10/29 08:16:27;;;;;;;9.10;2.45;;;;;;;12.22;100.00;99244.72;5051869;28;20104;-79
2023/10/29 08:18:52;;;;;;;10.75;2.42;;;;;;;12.32;100.00;99247.22;5049591;28;20132;-79
2023/10/29 08:21:18;;;;;;;8.13;2.58;;;;;;;12.41;100.00;99245.44;5051582;28;20104;-79
2023/10/29 08:23:43;;;;;;;9.98;2.03;;;;;;;12.46;100.00;99259.78;5051468;28;20021;-79
2023/10/29 08:26:08;;;;;;;10.35;2.13;;;;;;;12.52;100.00;99259.09;5050700;28;20016;-79
2023/10/29 08:28:35;;;;;;;9.18;1.98;;;;;;;12.62;100.00;99272.13;5050393;28;20039;-79
2023/10/29 08:31:01;;;;;;;6.85;2.22;;;;;;;12.67;100.00;99259.25;5048822;28;20021;-78
2023/10/29 08:33:27;;;;;;;9.48;2.03;;;;;;;12.66;100.00;99256.78;5051049;28;20114;-78
2023/10/29 08:35:52;;;;;;;9.95;2.72;;;;;;;12.70;100.00;99258.09;5050942;28;20099;-78
2023/10/29 08:38:19;;;;;;;6.45;1.70;;;;;;;12.71;100.00;99265.03;5050536;28;20033;-78
2023/10/29 08:40:44;;;;;;;9.00;2.00;;;;;;;12.78;100.00;99255.44;5048296;28;20036;-77
2023/10/29 08:43:09;;;;;;;10.93;2.25;;;;;;;12.84;100.00;99273.28;5049248;28;20398;-77
2023/10/29 08:45:35;;;;;;;7.43;1.90;;;;;;;12.90;100.00;99267.34;5051118;28;20032;-75
2023/10/29 08:48:00;;;;;;;8.82;2.10;;;;;;;12.92;100.00;99290.94;5050338;28;20478;-78
2023/10/29 08:50:28;;;;;;;10.07;1.92;;;;;;;12.96;100.00;99297.50;5034423;28;20028;-78
2023/10/29 08:52:53;;;;;;;10.27;2.30;;;;;;;13.02;100.00;99299.47;5051331;28;20099;-78
2023/10/29 08:55:19;;;;;;;9.93;2.22;;;;;;;13.07;97.08;99308.56;5049430;28;20545;-78
2023/10/29 08:57:44;;;;;;;7.05;1.77;;;;;;;13.13;98.99;99301.78;5032718;28;20028;-79
2023/10/29 09:00:10;;;;;;;9.23;2.38;;;;;;;13.22;98.04;99321.13;5048964;28;20104;-78
2023/10/29 09:02:36;;;;;;;9.52;2.13;;;;;;;13.33;99.47;99310.19;5050271;28;20436;-78
2023/10/29 09:05:01;;;;;;;8.80;2.17;;;;;;;13.41;96.24;99326.84;5049724;28;20108;-79
2023/10/29 09:07:27;;;;;;;8.60;2.00;;;;;;;13.48;93.88;99340.19;5050504;28;20170;-79
2023/10/29 09:09:53;;;;;;;7.57;2.08;;;;;;;13.54;94.29;99349.28;5050179;28;20055;-79
2023/10/29 09:12:19;;;;;;;7.93;1.95;;;;;;;13.60;96.42;99340.66;5049367;28;20025;-77
2023/10/29 09:14:44;;;;;;;9.45;2.03;;;;;;;13.62;92.58;99342.16;5048316;28;20115;-77
2023/10/29 09:17:10;;;;;;;9.75;2.50;;;;;;;13.61;93.45;99342.31;5050686;28;20060;-77
2023/10/29 09:19:35;;;;;;;9.52;2.30;;;;;;;13.54;93.21;99363.31;5049930;28;20107;-77
2023/10/29 09:22:01;;;;;;;9.02;2.40;;;;;;;13.46;92.77;99364.16;5049493;28;20106;-76
2023/10/29 09:24:27;;;;;;;8.50;2.13;;;;;;;13.39;93.71;99357.06;5050571;28;20024;-76
2023/10/29 09:26:53;;;;;;;10.63;2.40;;;;;;;13.40;91.59;99346.34;5050131;28;20035;-77
2023/10/29 09:29:18;;;;;;;10.00;2.20;;;;;;;13.45;92.92;99359.03;5031690;28;20028;-77
2023/10/29 09:31:44;;;;;;;10.75;1.92;;;;;;;13.50;94.29;99362.00;5032721;28;20494;-77
2023/10/29 09:34:10;;;;;;;8.88;2.10;;;;;;;13.57;91.39;99357.69;5049224;28;20032;-78
2023/10/29 09:36:35;;;;;;;8.00;2.20;;;;;;;13.65;94.30;99349.75;5045595;28;20028;-78
2023/10/29 09:39:01;;;;;;;9.80;2.53;;;;;;;13.71;90.47;99343.78;5031899;28;20095;-78
2023/10/29 09:41:26;;;;;;;9.20;2.30;;;;;;;13.74;92.01;99366.41;5049170;28;20111;-78
2023/10/29 09:43:53;;;;;;;14.68;2.35;;;;;;;13.74;90.87;99359.31;5048209;28;20060;-77
2023/10/29 09:46:21;;;;;;;9.95;2.03;;;;;;;13.72;90.73;99356.00;5049703;28;20025;-77
2023/10/29 09:48:47;;;;;;;10.55;2.50;;;;;;;13.74;89.82;99343.44;5049559;28;20028;-77
2023/10/29 09:51:12;;;;;;;11.80;2.33;;;;;;;13.74;89.21;99358.47;5048300;28;20090;-77
2023/10/29 09:53:39;;;;;;;11.07;2.30;;;;;;;13.75;88.22;99355.66;5046690;28;20025;-78
2023/10/29 09:56:08;;;;;;;8.32;2.35;;;;;;;13.75;88.68;99366.22;5042599;28;20028;-79
2023/10/29 09:58:35;;;;;;;11.10;2.35;;;;;;;13.74;90.31;99354.00;5048710;28;20033;-79
2023/10/29 10:01:03;;;;;;;11.00;1.95;;;;;;;13.76;86.28;99337.97;5031201;28;20111;-78
2023/10/29 10:03:29;;;;;;;7.68;2.15;;;;;;;13.77;89.53;99326.41;5048529;28;20037;-77
2023/10/29 10:05:57;;;;;;;8.50;2.22;;;;;;;13.77;88.82;99337.81;5049259;28;20052;-78
2023/10/29 10:08:26;;;;;;;11.90;2.22;;;;;;;13.80;89.67;99332.19;5029830;28;20486;-78
2023/10/29 10:10:53;;;;;;;8.15;1.85;;;;;;;13.76;90.57;99315.00;5047012;28;20033;-78
2023/10/29 10:13:34;;;;;;;9.80;2.17;;;;;;;13.78;89.04;99334.16;5030985;28;20029;-78
2023/10/29 10:16:10;;;;;;;9.05;2.30;;;;;;;13.72;90.55;99340.16;5047995;28;20466;-76
2023/10/29 10:18:51;;;;;;;9.73;2.15;;;;;;;13.71;90.41;99330.56;5029749;28;20654;-77
2023/10/29 10:21:17;;;;;;;12.38;2.33;;;;;;;13.66;88.45;99327.63;5049619;28;20029;-77
2023/10/29 10:24:00;;;;;;;12.93;2.47;;;;;;;13.68;89.38;99328.28;5031387;28;20442;-79
2023/10/29 10:26:27;;;;;;;11.95;2.25;;;;;;;13.68;90.21;99311.59;5048682;28;20070;-77
2023/10/29 10:28:56;;;;;;;10.07;2.45;;;;;;;13.72;89.29;99321.63;5048577;28;20036;-79
2023/10/29 10:31:23;;;;;;;9.30;1.90;;;;;;;13.76;90.36;99332.69;5049061;28;20478;-78
2023/10/29 10:33:49;;;;;;;10.93;2.40;;;;;;;13.80;88.33;99326.88;5033669;28;20047;-78
2023/10/29 10:36:29;;;;;;;7.35;2.00;;;;;;;13.87;88.77;99331.50;5048283;28;20037;-77
2023/10/29 10:38:55;;;;;;;9.25;2.65;;;;;;;13.97;90.16;99342.66;5048468;28;20025;-76
2023/10/29 10:41:20;;;;;;;7.38;2.17;;;;;;;14.07;89.60;99353.91;5030471;28;20033;-79
2023/10/29 10:44:04;;;;;;;12.25;2.88;;;;;;;14.13;89.42;99363.78;5047438;28;20029;-79
2023/10/29 10:46:34;;;;;;;7.60;2.00;;;;;;;14.11;88.81;99373.72;5042404;28;20033;-78
2023/10/29 10:49:01;;;;;;;7.88;2.35;;;;;;;14.10;89.29;99370.25;5049101;28;20061;-78
2023/10/29 10:51:30;;;;;;;10.00;2.25;;;;;;;14.01;89.29;99381.03;5048910;28;20032;-78
2023/10/29 10:53:57;;;;;;;8.27;2.28;;;;;;;13.96;89.37;99373.59;5048456;28;20021;-79
2023/10/29 10:56:23;;;;;;;9.95;2.40;;;;;;;13.90;89.73;99368.97;5047664;28;20443;-78
2023/10/29 10:58:50;;;;;;;9.13;2.05;;;;;;;13.83;89.94;99356.63;5047999;28;20108;-79
2023/10/29 11:01:16;;;;;;;10.52;2.30;;;;;;;13.78;89.09;99357.13;5047261;28;20024;-79
2023/10/29 11:03:45;;;;;;;8.25;2.17;;;;;;;13.73;90.41;99357.66;5048389;28;20049;-79
2023/10/29 11:06:11;;;;;;;8.10;1.92;;;;;;;13.69;91.83;99361.63;5047211;28;20033;-76
2023/10/29 11:08:39;;;;;;;11.45;2.15;;;;;;;13.65;89.65;99360.31;5029404;28;20029;-78
2023/10/29 11:11:06;;;;;;;9.00;2.45;;;;;;;13.61;91.70;99359.03;5046093;28;20024;-76
2023/10/29 11:13:34;;;;;;;9.98;2.20;;;;;;;13.58;90.97;99361.97;5047883;28;20155;-77
2023/10/29 11:16:01;;;;;;;6.82;1.98;;;;;;;13.54;91.63;99347.44;5046345;28;20082;-78
2023/10/29 11:18:28;;;;;;;8.20;2.15;;;;;;;13.53;92.73;99334.41;5039946;28;20025;-77
2023/10/29 11:20:55;;;;;;;8.68;1.98;;;;;;;13.48;93.86;99327.00;5051877;28;20505;-77